Time;durP1;ratioP1;P1;durP2;ratioP2;P2;SDS_P1;SDS_P2;PMS_P1;PMS_P2;Temp;Humidity;BMP_temperature;BMP_pressure;BME280_temperature;BME280_humidity;BME280_pressure;Samples;Min_cycle;Max_cycle;Signal;HPM_P1;HPM_P2
2022/04/25 00:01:30;;;;;;;7.00;5.18;;;;;;;10.60;63.20;100772.31;4984576;28;20033;-91
2022/04/25 00:03:56;;;;;;;7.75;5.53;;;;;;;10.56;62.53;100768.06;4987823;28;20034;-92
2022/04/25 00:06:21;;;;;;;8.45;5.15;;;;;;;10.46;63.30;100778.16;4973528;28;20050;-91
2022/04/25 00:08:47;;;;;;;9.90;5.60;;;;;;;10.40;62.28;100778.41;4974152;28;20032;-92
2022/04/25 00:11:12;;;;;;;12.95;5.85;;;;;;;10.42;62.90;100774.78;4990264;28;20072;-93
2022/04/25 00:13:38;;;;;;;8.18;5.63;;;;;;;10.38;62.80;100775.81;4975610;28;20362;-93
2022/04/25 00:16:03;;;;;;;9.05;5.60;;;;;;;10.26;62.91;100770.16;4986040;28;20066;-90
2022/04/25 00:18:29;;;;;;;9.73;6.05;;;;;;;10.21;63.97;100784.41;4972409;28;20073;-91
2022/04/25 00:20:55;;;;;;;8.52;5.75;;;;;;;10.17;64.68;100787.22;4975940;28;20026;-94
2022/04/25 00:23:21;;;;;;;8.52;5.45;;;;;;;10.02;64.42;100770.16;4988930;28;20516;-94
2022/04/25 00:25:46;;;;;;;8.10;5.28;;;;;;;9.97;63.31;100777.41;4986081;28;20272;-94
2022/04/25 00:28:11;;;;;;;8.35;5.75;;;;;;;9.92;65.63;100782.88;4995558;28;20073;-89
2022/04/25 00:30:37;;;;;;;8.32;5.50;;;;;;;9.86;65.36;100788.38;4972055;28;20422;-93
2022/04/25 00:33:02;;;;;;;9.30;5.30;;;;;;;9.75;66.10;100787.94;4989257;28;20038;-92
2022/04/25 00:35:28;;;;;;;10.02;5.95;;;;;;;9.65;66.21;100791.81;4990924;28;20038;-92
2022/04/25 00:37:54;;;;;;;9.38;5.97;;;;;;;9.53;66.68;100779.09;4989384;28;20040;-91
2022/04/25 00:40:23;;;;;;;10.93;5.68;;;;;;;9.51;65.14;100779.13;4977634;28;20026;-92
2022/04/25 00:42:49;;;;;;;11.73;5.65;;;;;;;9.62;65.29;100786.69;4969963;28;20378;-92
2022/04/25 00:45:15;;;;;;;8.77;6.25;;;;;;;9.57;65.14;100789.50;4968730;28;20027;-93
2022/04/25 00:47:42;;;;;;;9.10;5.35;;;;;;;9.45;66.83;100771.44;4994082;28;20756;-93
2022/04/25 00:50:09;;;;;;;10.57;6.32;;;;;;;9.47;67.02;100780.19;4994910;28;20084;-90
2022/04/25 00:52:36;;;;;;;9.93;6.13;;;;;;;9.36;67.17;100777.91;4965226;28;20037;-90
2022/04/25 00:55:04;;;;;;;12.50;6.32;;;;;;;9.32;67.85;100786.00;4986642;28;20051;-93
2022/04/25 00:57:30;;;;;;;10.60;6.18;;;;;;;9.19;68.69;100780.31;4980588;28;20378;-94
2022/04/25 00:59:57;;;;;;;10.30;6.18;;;;;;;9.11;67.48;100774.44;4975097;28;20166;-91
2022/04/25 01:02:25;;;;;;;10.80;5.97;;;;;;;9.05;66.28;100770.25;4988320;28;20026;-89
2022/04/25 01:04:50;;;;;;;7.60;5.90;;;;;;;9.00;67.97;100766.03;4985531;28;20583;-92
2022/04/25 01:07:15;;;;;;;11.75;6.47;;;;;;;9.08;67.00;100770.13;4985184;28;20029;-93
2022/04/25 01:09:41;;;;;;;9.70;6.07;;;;;;;9.10;67.29;100765.69;4986317;28;20025;-91
2022/04/25 01:12:06;;;;;;;11.30;6.55;;;;;;;9.01;66.30;100758.09;4988706;28;20065;-91
2022/04/25 01:14:32;;;;;;;12.25;6.10;;;;;;;9.07;66.54;100773.69;4987144;28;20048;-91
2022/04/25 01:16:57;;;;;;;12.50;6.55;;;;;;;9.08;66.37;100780.69;4993178;28;20029;-93
2022/04/25 01:19:22;;;;;;;11.68;6.43;;;;;;;9.04;66.50;100772.94;4988966;28;20022;-90
2022/04/25 01:21:59;;;;;;;11.55;6.60;;;;;;;9.07;66.62;100773.69;4984355;28;20406;-91
2022/04/25 01:27:16;;;;;;;10.52;6.50;;;;;;;9.01;67.56;100768.63;4995760;28;20072;-92
2022/04/25 01:29:45;;;;;;;;;;;;;;;9.11;63.71;100772.66;4992499;28;20030;-92
2022/04/25 01:32:10;;;;;;;10.93;6.88;;;;;;;8.90;68.73;100770.75;4992379;28;19921;-90
2022/04/25 01:34:37;;;;;;;13.73;7.47;;;;;;;8.90;69.69;100781.31;4988699;28;20037;-91
2022/04/25 01:37:16;;;;;;;10.00;6.63;;;;;;;8.77;68.73;100761.59;4989269;28;20045;-93
2022/04/25 01:39:50;;;;;;;10.77;6.82;;;;;;;8.81;68.99;100785.16;4972655;28;20034;-92
2022/04/25 01:42:17;;;;;;;14.52;7.13;;;;;;;8.77;68.93;100777.41;4972107;28;20022;-92
2022/04/25 01:44:43;;;;;;;11.82;6.47;;;;;;;8.73;69.56;100775.78;4971687;28;20099;-91
2022/04/25 01:47:08;;;;;;;12.43;7.05;;;;;;;8.67;69.98;100780.34;4988652;28;20030;-90
2022/04/25 01:49:35;;;;;;;12.38;7.43;;;;;;;8.63;70.41;100778.72;4974176;28;20393;-91
2022/04/25 01:52:23;;;;;;;12.27;7.28;;;;;;;8.61;69.17;100777.88;4970372;28;20032;-91
2022/04/25 01:54:48;;;;;;;9.50;6.72;;;;;;;8.53;71.59;100776.41;4970438;28;20054;-88
2022/04/25 01:57:14;;;;;;;12.88;7.75;;;;;;;8.60;68.54;100776.16;4971545;28;20037;-90
2022/04/25 01:59:40;;;;;;;12.52;8.23;;;;;;;8.63;70.35;100778.72;4994177;28;20022;-92
2022/04/25 02:02:06;;;;;;;14.30;7.72;;;;;;;8.58;71.04;100764.84;4972744;28;20466;-91
2022/04/25 02:04:31;;;;;;;13.48;7.25;;;;;;;8.59;70.44;100781.50;4971542;28;20026;-92
2022/04/25 02:06:57;;;;;;;9.95;6.85;;;;;;;8.57;68.88;100783.31;4985223;28;20038;-91
2022/04/25 02:09:23;;;;;;;12.88;7.18;;;;;;;8.52;70.88;100770.28;4990668;28;20029;-92
2022/04/25 02:11:49;;;;;;;13.10;7.40;;;;;;;8.44;68.87;100767.06;4989306;28;20026;-93
2022/04/25 02:14:14;;;;;;;10.00;7.60;;;;;;;8.44;68.39;100767.06;4988889;28;20030;-92
2022/04/25 02:16:40;;;;;;;11.50;7.10;;;;;;;8.49;69.01;100770.41;4989995;28;20026;-90
2022/04/25 02:19:06;;;;;;;12.43;7.15;;;;;;;8.49;68.18;100774.81;5000086;28;20048;-90
2022/04/25 02:21:31;;;;;;;12.27;7.28;;;;;;;8.52;68.46;100769.41;4990992;28;20023;-91
2022/04/25 02:23:57;;;;;;;10.80;7.75;;;;;;;8.35;68.49;100755.00;4975313;28;20080;-91
2022/04/25 02:26:23;;;;;;;11.60;8.13;;;;;;;8.42;71.50;100766.22;4973930;28;20154;-92
2022/04/25 02:28:48;;;;;;;13.45;8.45;;;;;;;8.35;71.90;100767.31;4990042;28;20088;-90
2022/04/25 02:31:14;;;;;;;14.90;8.55;;;;;;;8.38;70.90;100775.13;4973243;28;20030;-89
2022/04/25 02:33:41;;;;;;;10.20;7.25;;;;;;;8.39;68.80;100767.22;4987604;28;20053;-90
2022/04/25 02:36:07;;;;;;;13.68;7.90;;;;;;;8.40;68.47;100768.06;4974913;28;20034;-89
2022/04/25 02:38:33;;;;;;;13.10;7.80;;;;;;;8.46;68.37;100767.00;4969441;28;20031;-92
2022/04/25 02:41:04;;;;;;;12.93;8.18;;;;;;;8.43;70.40;100760.03;4978398;28;20026;-91
2022/04/25 02:43:35;;;;;;;9.82;6.90;;;;;;;8.45;68.58;100771.41;4973980;28;20428;-92
2022/04/25 02:46:02;;;;;;;17.50;8.88;;;;;;;8.38;71.27;100757.56;4971763;28;20038;-92
2022/04/25 02:48:28;;;;;;;11.70;7.90;;;;;;;8.42;68.80;100774.13;4987757;28;20022;-89
2022/04/25 02:50:54;;;;;;;11.52;8.13;;;;;;;8.40;69.60;100775.97;4992251;28;20102;-93
2022/04/25 02:53:19;;;;;;;12.45;9.05;;;;;;;8.40;68.63;100771.56;4969686;28;20038;-92
2022/04/25 02:55:44;;;;;;;14.70;9.95;;;;;;;8.33;72.12;100772.63;4983555;28;20042;-92
2022/04/25 02:58:10;;;;;;;14.77;8.85;;;;;;;8.24;72.60;100775.53;4967281;28;20033;-91
2022/04/25 03:00:35;;;;;;;14.30;8.80;;;;;;;8.22;69.65;100771.25;4993590;28;20018;-90
2022/04/25 03:03:01;;;;;;;16.45;8.52;;;;;;;8.22;69.85;100772.13;4986951;28;20481;-90
2022/04/25 03:05:26;;;;;;;12.02;8.52;;;;;;;8.19;69.70;100759.88;4985832;28;20365;-90
2022/04/25 03:07:51;;;;;;;15.50;8.10;;;;;;;8.21;68.50;100770.41;4972235;28;20034;-92
2022/04/25 03:10:17;;;;;;;14.30;8.48;;;;;;;8.25;69.47;100772.00;4989487;28;20025;-90
2022/04/25 03:12:42;;;;;;;12.02;8.82;;;;;;;8.16;69.11;100760.00;4990242;28;20409;-91
2022/04/25 03:15:08;;;;;;;13.93;9.50;;;;;;;8.24;68.98;100769.41;4987876;28;20093;-92
2022/04/25 03:17:33;;;;;;;12.88;7.90;;;;;;;8.14;68.94;100761.81;4980444;28;20042;-92
2022/04/25 03:19:58;;;;;;;13.55;9.07;;;;;;;8.17;69.40;100774.03;4995310;28;20026;-92
2022/04/25 03:22:24;;;;;;;13.65;8.48;;;;;;;8.13;71.08;100768.00;4988526;28;21249;-92
2022/04/25 03:24:49;;;;;;;15.45;9.05;;;;;;;8.09;71.40;100765.50;4974869;28;20037;-93
2022/04/25 03:27:15;;;;;;;10.93;8.65;;;;;;;8.02;69.47;100767.47;4991683;28;20083;-93
2022/04/25 03:29:40;;;;;;;13.65;8.75;;;;;;;8.03;68.69;100771.81;4972397;28;20018;-92
2022/04/25 03:32:06;;;;;;;13.00;8.02;;;;;;;8.02;68.86;100780.63;4966887;28;20022;-91
2022/04/25 03:34:32;;;;;;;17.10;8.30;;;;;;;8.00;68.85;100778.94;4966338;28;20095;-90
2022/04/25 03:36:57;;;;;;;15.77;9.13;;;;;;;7.99;69.45;100778.09;4986461;28;20073;-91
2022/04/25 03:39:22;;;;;;;12.82;8.68;;;;;;;8.02;70.74;100779.75;4990548;28;20480;-93
2022/04/25 03:41:48;;;;;;;14.98;9.35;;;;;;;7.99;70.45;100785.97;4971113;28;20597;-91
2022/04/25 03:44:13;;;;;;;12.10;8.77;;;;;;;7.92;68.50;100784.44;4970082;28;20489;-91
2022/04/25 03:46:39;;;;;;;12.50;8.63;;;;;;;7.92;70.46;100787.06;4991506;28;20037;-89
2022/04/25 03:49:04;;;;;;;13.77;8.55;;;;;;;7.84;68.89;100789.94;4985548;28;20185;-90
2022/04/25 03:51:29;;;;;;;14.82;8.57;;;;;;;7.74;68.38;100784.97;4969703;28;20026;-92
2022/04/25 03:53:55;;;;;;;14.18;9.35;;;;;;;7.70;71.16;100778.97;4991237;28;20044;-91
2022/04/25 03:59:05;;;;;;;14.18;8.48;;;;;;;7.74;69.32;100788.50;4988507;28;20049;-90
2022/04/25 04:01:31;;;;;;;13.88;9.50;;;;;;;7.75;70.79;100789.34;4976905;28;20014;-91
2022/04/25 04:04:02;;;;;;;15.45;8.80;;;;;;;7.76;69.97;100791.06;4990188;28;20041;-92
2022/04/25 04:06:27;;;;;;;15.70;9.75;;;;;;;7.74;70.07;100780.59;4985378;28;20034;-91
2022/04/25 04:08:53;;;;;;;13.10;8.95;;;;;;;7.74;70.48;100788.50;4991625;28;20473;-92
2022/04/25 04:11:18;;;;;;;15.30;10.00;;;;;;;7.79;70.79;100793.63;4966387;28;20041;-91
2022/04/25 04:13:45;;;;;;;14.10;9.55;;;;;;;7.75;72.16;100786.72;4988672;28;20026;-89
2022/04/25 04:16:10;;;;;;;16.85;9.45;;;;;;;7.68;70.95;100792.16;4969373;28;21058;-91
2022/04/25 04:18:35;;;;;;;17.77;9.55;;;;;;;7.73;70.59;100801.69;4989991;28;20034;-89
2022/04/25 04:21:01;;;;;;;14.15;9.48;;;;;;;7.66;70.92;100803.63;4985546;28;20108;-91
2022/04/25 04:23:26;;;;;;;14.50;9.15;;;;;;;7.63;71.11;100799.31;4965951;28;20026;-91
2022/04/25 04:25:51;;;;;;;17.80;10.10;;;;;;;7.65;71.42;100805.41;4992149;28;20113;-92
2022/04/25 04:28:17;;;;;;;19.48;10.27;;;;;;;7.50;71.16;100786.56;4985938;28;20500;-93
2022/04/25 04:30:44;;;;;;;15.50;9.27;;;;;;;7.59;71.40;100802.06;4971536;28;20073;-89
2022/04/25 04:33:10;;;;;;;16.23;10.38;;;;;;;7.54;72.04;100810.09;4988817;28;20034;-91
2022/04/25 04:38:19;;;;;;;18.45;10.93;;;;;;;7.48;72.07;100812.03;4988304;28;20048;-90
2022/04/25 04:40:44;;;;;;;17.30;10.32;;;;;;;7.50;72.40;100813.72;4968291;28;20026;-92
2022/04/25 04:43:09;;;;;;;18.10;10.48;;;;;;;7.49;72.62;100819.88;4989396;28;20381;-91
2022/04/25 04:45:35;;;;;;;17.95;10.77;;;;;;;7.47;72.15;100819.06;4987585;28;20217;-91
2022/04/25 04:48:00;;;;;;;19.77;11.27;;;;;;;7.49;73.39;100824.28;4984808;28;20030;-91
2022/04/25 04:50:27;;;;;;;16.48;10.32;;;;;;;7.43;72.78;100812.19;4986974;28;20049;-90
2022/04/25 04:53:00;;;;;;;15.82;10.18;;;;;;;7.37;72.74;100823.72;4987116;28;20023;-91
2022/04/25 04:55:25;;;;;;;18.80;10.15;;;;;;;7.41;72.60;100835.91;4986010;28;20046;-93
2022/04/25 04:57:51;;;;;;;15.93;10.15;;;;;;;7.49;72.62;100835.66;4976784;28;20034;-91
2022/04/25 05:00:17;;;;;;;16.95;11.65;;;;;;;7.56;74.24;100831.13;4987775;28;20405;-92
2022/04/25 05:02:43;;;;;;;21.02;12.15;;;;;;;7.74;73.63;100843.75;4972784;28;20029;-89
2022/04/25 05:05:10;;;;;;;20.73;11.40;;;;;;;7.83;74.43;100842.59;4990346;28;20580;-92
2022/04/25 05:07:35;;;;;;;17.08;10.70;;;;;;;7.92;72.50;100843.19;4973975;28;20385;-89
2022/04/25 05:10:03;;;;;;;17.52;11.60;;;;;;;8.02;73.48;100851.72;4974074;28;20034;-92
2022/04/25 05:12:29;;;;;;;18.42;11.13;;;;;;;8.09;75.25;100847.97;4976520;28;20135;-89
2022/04/25 05:14:54;;;;;;;18.65;12.60;;;;;;;8.12;74.95;100847.03;4992084;28;20080;-91
2022/04/25 05:17:20;;;;;;;18.05;11.88;;;;;;;8.18;73.26;100852.13;4989596;28;20026;-91
2022/04/25 05:19:45;;;;;;;22.98;11.90;;;;;;;8.17;73.30;100853.03;4986999;28;20494;-91
2022/04/25 05:22:10;;;;;;;17.40;11.50;;;;;;;8.18;72.57;100847.72;4974316;28;20049;-91
2022/04/25 05:24:36;;;;;;;19.77;11.57;;;;;;;8.25;72.55;100856.28;4972830;28;20385;-88
2022/04/25 05:27:01;;;;;;;22.30;12.23;;;;;;;8.34;74.50;100856.00;4969326;28;20037;-89
2022/04/25 05:29:27;;;;;;;19.10;12.95;;;;;;;8.33;75.10;100853.41;4972600;28;20026;-90
2022/04/25 05:31:52;;;;;;;22.25;12.93;;;;;;;8.36;72.88;100856.84;4993055;28;20164;-90
2022/04/25 05:34:18;;;;;;;19.40;12.23;;;;;;;8.43;73.61;100860.16;4990360;28;20098;-93
2022/04/25 05:36:44;;;;;;;19.58;11.93;;;;;;;8.52;72.80;100865.13;4972207;28;20171;-88
2022/04/25 05:39:09;;;;;;;18.75;12.63;;;;;;;8.57;73.06;100854.44;4973039;28;20018;-92
2022/04/25 05:41:40;;;;;;;23.60;12.90;;;;;;;8.58;72.71;100858.81;4972675;28;20177;-93
2022/04/25 05:44:09;;;;;;;20.77;12.33;;;;;;;8.60;73.90;100863.13;4994812;28;20038;-93
2022/04/25 05:46:34;;;;;;;21.23;12.82;;;;;;;8.73;73.13;100873.28;4990137;28;20465;-93
2022/04/25 05:51:58;;;;;;;20.55;13.32;;;;;;;8.86;73.08;100883.41;4985876;28;20041;-88
2022/04/25 05:54:24;;;;;;;23.20;13.18;;;;;;;8.88;73.75;100880.69;4976929;28;20493;-90
2022/04/25 05:56:49;;;;;;;20.10;12.82;;;;;;;8.94;72.12;100884.00;4971923;28;20081;-89
2022/04/25 05:59:14;;;;;;;24.70;13.55;;;;;;;8.99;73.21;100894.38;4993253;28;20030;-93
2022/04/25 06:01:40;;;;;;;27.55;13.30;;;;;;;8.97;71.94;100879.53;4972354;28;20408;-92
2022/04/25 06:04:05;;;;;;;22.05;13.77;;;;;;;9.08;73.43;100883.53;4971885;28;20145;-93
2022/04/25 06:06:31;;;;;;;21.23;13.07;;;;;;;9.16;72.34;100897.34;4989123;28;20157;-93
2022/04/25 06:08:56;;;;;;;19.83;12.23;;;;;;;9.19;72.03;100885.84;4985967;28;20496;-95
2022/04/25 06:11:22;;;;;;;22.10;13.05;;;;;;;9.22;71.94;100884.84;4988482;28;20031;-88
2022/04/25 06:13:50;;;;;;;20.92;13.40;;;;;;;9.28;73.75;100892.53;4990432;28;20370;-92
2022/04/25 06:16:16;;;;;;;23.20;13.70;;;;;;;9.44;71.92;100899.03;4974117;28;20038;-94
2022/04/25 06:18:41;;;;;;;20.55;13.10;;;;;;;9.43;72.81;100890.25;4993198;28;20030;-89
2022/04/25 06:21:06;;;;;;;18.17;11.98;;;;;;;9.46;72.83;100891.91;4985303;28;20022;-94
2022/04/25 06:23:32;;;;;;;21.40;12.75;;;;;;;9.50;71.85;100900.59;4988860;28;20024;-93
2022/04/25 06:25:58;;;;;;;18.23;13.20;;;;;;;9.54;72.10;100899.59;4973434;28;20023;-92
2022/04/25 06:28:26;;;;;;;26.75;16.27;;;;;;;9.59;72.79;100895.00;4971275;28;20035;-91
2022/04/25 06:30:52;;;;;;;21.27;13.27;;;;;;;9.85;70.59;100891.44;4968882;28;20485;-92
2022/04/25 06:33:17;;;;;;;19.42;12.65;;;;;;;10.16;70.40;100899.94;4991193;28;20026;-93
2022/04/25 06:35:43;;;;;;;20.92;13.30;;;;;;;10.36;70.39;100901.03;4973905;28;20030;-90
2022/04/25 06:38:09;;;;;;;20.40;14.27;;;;;;;10.49;68.57;100904.88;4986442;28;20632;-88
2022/04/25 06:40:34;;;;;;;25.40;13.45;;;;;;;10.63;69.11;100907.00;4988383;28;20045;-93
2022/04/25 06:42:59;;;;;;;23.52;13.60;;;;;;;10.72;68.93;100906.63;4970472;28;20210;-90
2022/04/25 06:45:25;;;;;;;21.70;13.45;;;;;;;10.81;67.88;100910.69;4976181;28;20038;-92
2022/04/25 06:47:50;;;;;;;23.90;13.18;;;;;;;10.82;67.24;100909.75;4966052;28;20295;-88
2022/04/25 06:50:16;;;;;;;22.05;13.68;;;;;;;10.80;67.62;100916.91;4988528;28;20054;-94
2022/04/25 06:52:42;;;;;;;24.05;13.77;;;;;;;10.76;67.37;100923.25;4985650;28;20430;-93
2022/04/25 06:55:08;;;;;;;21.42;14.45;;;;;;;10.68;67.81;100921.78;4984499;28;20077;-91
2022/04/25 06:57:34;;;;;;;23.70;13.20;;;;;;;10.69;68.17;100923.50;4973625;28;20478;-93
2022/04/25 07:00:08;;;;;;;23.60;13.85;;;;;;;10.63;67.98;100926.38;4989543;28;20435;-89
2022/04/25 07:02:34;;;;;;;21.27;13.73;;;;;;;10.64;68.22;100933.41;4966302;28;20022;-92
2022/04/25 07:05:00;;;;;;;23.50;14.52;;;;;;;10.54;68.79;100928.50;4991064;28;20228;-93
2022/04/25 07:07:25;;;;;;;22.77;14.32;;;;;;;10.48;68.23;100926.97;4996462;28;20481;-95
2022/04/25 07:09:50;;;;;;;21.10;14.45;;;;;;;10.42;68.92;100916.63;4982701;28;20030;-89
2022/04/25 07:12:16;;;;;;;22.15;14.50;;;;;;;10.46;68.44;100928.81;4988031;28;20488;-92
2022/04/25 07:14:41;;;;;;;22.70;14.68;;;;;;;10.44;69.20;100931.53;4982182;28;20037;-91
2022/04/25 07:17:07;;;;;;;20.50;14.90;;;;;;;10.48;68.97;100926.97;4988961;28;20023;-93
2022/04/25 07:19:32;;;;;;;22.85;14.75;;;;;;;10.50;68.70;100933.06;4986950;28;20084;-92
2022/04/25 07:30:09;;;;;;;22.23;14.35;;;;;;;10.36;69.35;100935.38;4985759;28;20041;-92
2022/04/25 07:32:40;;;;;;;21.85;15.07;;;;;;;10.30;69.37;100933.78;4986953;28;20525;-94
2022/04/25 07:35:06;;;;;;;27.17;16.27;;;;;;;10.28;69.02;100934.78;4973899;28;20042;-89
2022/04/25 07:37:33;;;;;;;20.45;14.27;;;;;;;10.30;69.24;100938.22;4987678;28;20034;-93
2022/04/25 07:40:00;;;;;;;28.60;16.20;;;;;;;10.30;69.81;100943.50;4989136;28;20081;-93
2022/04/25 07:42:25;;;;;;;25.90;15.35;;;;;;;10.35;68.82;100939.81;4989632;28;20034;-92
2022/04/25 07:44:50;;;;;;;24.67;15.93;;;;;;;10.33;69.37;100941.63;4988627;28;20438;-91
2022/04/25 07:47:16;;;;;;;25.98;16.15;;;;;;;10.37;70.14;100947.66;4985641;28;20045;-92
2022/04/25 07:49:41;;;;;;;26.15;15.77;;;;;;;10.37;70.58;100947.66;4987965;28;20030;-93
2022/04/25 07:52:08;;;;;;;25.73;16.58;;;;;;;10.39;69.66;100956.38;4972189;28;20077;-94
2022/04/25 07:54:33;;;;;;;24.23;15.90;;;;;;;10.32;69.64;100957.53;4984200;28;20141;-89
2022/04/25 07:56:59;;;;;;;27.40;16.20;;;;;;;10.23;70.61;100956.94;4985303;28;20165;-91
2022/04/25 07:59:26;;;;;;;25.27;16.30;;;;;;;10.15;71.25;100958.97;4993417;28;20034;-92
2022/04/25 08:01:52;;;;;;;23.58;16.48;;;;;;;10.04;72.05;100962.94;4972361;28;20141;-90
2022/04/25 08:04:17;;;;;;;26.85;16.45;;;;;;;10.01;72.72;100966.53;4988565;28;20116;-91
2022/04/25 08:06:42;;;;;;;28.15;17.50;;;;;;;10.00;73.44;100967.47;4987737;28;20723;-93
2022/04/25 08:09:08;;;;;;;27.83;17.23;;;;;;;10.01;73.45;100968.31;4986940;28;20038;-93
2022/04/25 08:11:33;;;;;;;26.73;17.17;;;;;;;10.06;74.03;100976.94;4991265;28;20019;-89
2022/04/25 08:19:26;;;;;;;27.00;17.83;;;;;;;9.97;74.40;100972.84;4984218;28;20124;-93
2022/04/25 08:21:53;;;;;;;26.60;16.92;;;;;;;9.94;74.01;100978.25;4983377;28;20058;-91
2022/04/25 08:24:18;;;;;;;25.00;15.60;;;;;;;10.06;73.13;100988.38;4982348;28;20029;-91
2022/04/25 08:26:44;;;;;;;27.17;17.58;;;;;;;10.17;73.42;100991.50;4970407;28;20026;-89
2022/04/25 08:29:10;;;;;;;24.20;16.45;;;;;;;10.23;72.96;100993.91;4973157;28;20061;-91
2022/04/25 08:31:37;;;;;;;25.95;18.23;;;;;;;10.23;73.28;101001.84;4968984;28;20117;-90
2022/04/25 08:34:04;;;;;;;30.85;19.10;;;;;;;10.18;73.31;100995.88;4987810;28;20030;-92
2022/04/25 08:36:30;;;;;;;28.05;16.52;;;;;;;10.19;73.22;101002.00;4976607;28;20176;-92
2022/04/25 08:38:55;;;;;;;27.63;16.40;;;;;;;10.27;72.88;101007.06;4987245;28;20188;-88
2022/04/25 08:41:48;;;;;;;28.30;17.48;;;;;;;10.30;73.30;101002.50;4990011;28;20037;-91
2022/04/25 08:44:18;;;;;;;27.38;17.60;;;;;;;10.38;73.03;101011.03;4985641;28;20176;-92
2022/04/25 08:46:52;;;;;;;28.65;17.55;;;;;;;10.42;72.64;101015.28;4989064;28;20053;-94
2022/04/25 08:49:19;;;;;;;26.88;16.23;;;;;;;10.46;72.22;101013.41;4974505;28;20026;-93
2022/04/25 08:51:47;;;;;;;30.00;17.33;;;;;;;10.47;72.71;101015.97;4986424;28;20046;-94
2022/04/25 08:54:13;;;;;;;31.65;18.02;;;;;;;10.48;72.90;101017.69;4974698;28;20472;-91
2022/04/25 08:56:40;;;;;;;92.68;28.58;;;;;;;10.52;74.33;101018.44;4989289;28;20022;-89
2022/04/25 08:59:07;;;;;;;34.08;18.83;;;;;;;10.44;73.09;101007.28;4969850;28;20072;-89
2022/04/25 09:01:33;;;;;;;42.50;19.98;;;;;;;10.47;72.22;101017.75;4983788;28;20022;-93
2022/04/25 09:04:01;;;;;;;39.97;20.67;;;;;;;10.51;72.87;101027.31;4990818;28;20026;-91
2022/04/25 09:06:26;;;;;;;54.78;22.60;;;;;;;10.54;74.25;101031.59;4988568;28;20049;-91
2022/04/25 09:08:52;;;;;;;28.60;17.83;;;;;;;10.62;73.48;101030.41;4987919;28;20588;-91
2022/04/25 09:14:02;;;;;;;29.33;17.52;;;;;;;10.67;73.53;101039.00;4985796;28;20151;-92
2022/04/25 09:16:28;;;;;;;32.45;19.42;;;;;;;10.67;72.99;101046.09;4987449;28;20026;-91
2022/04/25 09:18:53;;;;;;;27.40;18.77;;;;;;;10.69;74.72;101039.84;4985348;28;20036;-91
2022/04/25 09:21:18;;;;;;;29.23;19.23;;;;;;;10.73;73.32;101040.59;4987200;28;20425;-92
2022/04/25 09:23:44;;;;;;;29.50;18.85;;;;;;;10.78;74.36;101045.72;4989484;28;20042;-92
2022/04/25 09:26:11;;;;;;;30.50;19.58;;;;;;;10.68;73.93;101061.06;4972541;28;20390;-91
2022/04/25 09:28:50;;;;;;;27.00;18.65;;;;;;;10.67;72.82;101048.72;4988475;28;20030;-91
2022/04/25 09:31:17;;;;;;;34.97;20.35;;;;;;;10.68;74.29;101055.78;4972537;28;20825;-90
2022/04/25 09:33:43;;;;;;;30.63;19.50;;;;;;;10.62;73.65;101053.34;4975085;28;20100;-90
2022/04/25 09:36:08;;;;;;;28.83;19.38;;;;;;;10.62;73.73;101056.84;4991741;28;20034;-92
2022/04/25 09:38:36;;;;;;;29.02;19.15;;;;;;;10.58;73.59;101052.56;4981974;28;20038;-89
2022/04/25 09:41:02;;;;;;;27.63;17.75;;;;;;;10.65;74.30;101053.22;4979472;28;20031;-90
2022/04/25 09:43:33;;;;;;;26.55;17.63;;;;;;;10.64;73.61;101060.31;4997659;28;20087;-94
2022/04/25 09:46:06;;;;;;;25.83;16.23;;;;;;;10.67;73.79;101052.25;4994827;28;20030;-91
2022/04/25 09:48:32;;;;;;;25.50;16.75;;;;;;;10.63;74.26;101055.94;4971255;28;20033;-92
2022/04/25 09:51:03;;;;;;;21.45;14.40;;;;;;;10.66;72.45;101058.44;4969999;28;20022;-94
2022/04/25 09:53:41;;;;;;;23.13;15.95;;;;;;;10.75;73.91;101072.25;4988871;28;20133;-93
2022/04/25 09:56:35;;;;;;;22.50;15.93;;;;;;;10.76;72.96;101071.34;4990599;28;20140;-92
2022/04/25 09:59:07;;;;;;;21.60;15.35;;;;;;;10.71;73.76;101074.16;4989166;28;20050;-91
2022/04/25 10:01:35;;;;;;;24.02;16.15;;;;;;;10.69;73.19;101071.56;4970559;28;20604;-94
2022/04/25 10:04:02;;;;;;;23.67;15.82;;;;;;;10.67;73.81;101080.47;4973027;28;20058;-90
2022/04/25 10:06:34;;;;;;;28.05;18.08;;;;;;;10.64;74.27;101076.16;4967844;28;20545;-93
2022/04/25 10:09:02;;;;;;;23.80;15.70;;;;;;;10.65;73.68;101083.19;4982325;28;20028;-92
2022/04/25 10:11:34;;;;;;;25.30;16.38;;;;;;;10.70;74.03;101081.22;4983806;28;20022;-89
2022/04/25 10:14:00;;;;;;;25.85;16.27;;;;;;;10.71;73.97;101082.94;4990658;28;20034;-91
2022/04/25 10:16:26;;;;;;;22.02;15.85;;;;;;;10.75;73.80;101086.34;4986891;28;20194;-89
2022/04/25 10:18:51;;;;;;;26.35;17.45;;;;;;;10.77;73.56;101075.69;4987257;28;20576;-91
2022/04/25 10:21:17;;;;;;;22.02;15.65;;;;;;;10.83;73.01;101080.78;4983180;28;20382;-92
2022/04/25 10:23:44;;;;;;;27.05;16.77;;;;;;;10.86;73.64;101085.94;4991045;28;20060;-93
2022/04/25 10:26:09;;;;;;;24.08;16.67;;;;;;;10.84;73.13;101083.34;4983610;28;20466;-91
2022/04/25 10:28:51;;;;;;;24.77;16.88;;;;;;;10.88;73.66;101092.03;4984501;28;20029;-91
2022/04/25 10:31:23;;;;;;;20.15;15.18;;;;;;;10.93;73.29;101098.03;4982374;28;20148;-92
2022/04/25 10:33:51;;;;;;;24.67;16.67;;;;;;;10.92;73.02;101102.47;4972253;28;20035;-92
2022/04/25 10:36:38;;;;;;;22.95;15.98;;;;;;;11.01;72.85;101105.69;4991113;28;20034;-92
2022/04/25 10:39:24;;;;;;;24.92;16.73;;;;;;;11.01;72.91;101105.69;4970720;28;20041;-91
2022/04/25 10:44:36;;;;;;;22.75;15.45;;;;;;;11.04;72.34;101113.47;4990080;28;20104;-91
2022/04/25 10:47:13;;;;;;;23.25;15.82;;;;;;;11.02;72.66;101113.56;4985250;28;20564;-94
2022/04/25 10:49:44;;;;;;;23.33;14.95;;;;;;;11.02;73.11;101115.34;4987716;28;20048;-92
2022/04/25 10:52:31;;;;;;;21.77;15.68;;;;;;;11.07;72.07;101113.38;4969190;28;20068;-93
2022/04/25 10:55:36;;;;;;;21.90;15.65;;;;;;;11.09;71.93;101120.31;4980688;28;20497;-93
2022/04/25 10:58:01;;;;;;;19.58;13.98;;;;;;;11.04;71.52;101118.78;4974891;28;20077;-92
2022/04/25 11:00:53;;;;;;;22.48;14.13;;;;;;;11.11;71.09;101126.44;4987548;28;20061;-91
2022/04/25 11:03:23;;;;;;;22.48;15.27;;;;;;;11.07;72.10;101123.97;4983572;28;20156;-90
2022/04/25 11:05:55;;;;;;;22.48;15.68;;;;;;;11.05;73.01;101124.03;4986565;28;20029;-91
2022/04/25 11:08:20;;;;;;;22.73;14.60;;;;;;;11.00;72.18;101128.59;4985165;28;20037;-90
2022/04/25 11:11:08;;;;;;;22.42;15.43;;;;;;;11.03;72.86;101136.44;4990880;28;20026;-92
2022/04/25 11:13:55;;;;;;;21.85;14.65;;;;;;;11.10;72.28;101135.31;4971391;28;20033;-92
2022/04/25 11:16:24;;;;;;;22.90;14.90;;;;;;;11.05;73.04;101123.13;4976619;28;20042;-91
2022/04/25 11:19:07;;;;;;;19.73;14.32;;;;;;;11.12;71.70;101137.88;4988793;28;20166;-90
2022/04/25 11:21:32;;;;;;;23.83;15.30;;;;;;;11.05;71.54;101137.25;4985663;28;20034;-94
2022/04/25 11:23:59;;;;;;;25.10;15.25;;;;;;;11.08;72.02;101133.63;4986085;28;20076;-92
2022/04/25 11:26:24;;;;;;;22.20;15.18;;;;;;;11.23;72.71;101140.97;4982095;28;20065;-93
2022/04/25 11:29:01;;;;;;;24.95;14.85;;;;;;;11.33;71.94;101146.78;4986669;28;20482;-89
2022/04/25 11:31:31;;;;;;;21.77;15.05;;;;;;;11.45;71.46;101146.31;4966032;28;20142;-89
2022/04/25 11:34:00;;;;;;;24.23;15.57;;;;;;;11.49;71.33;101150.56;4986697;28;20014;-93
2022/04/25 11:36:25;;;;;;;25.00;17.50;;;;;;;11.52;72.52;101147.81;4970863;28;20022;-92
2022/04/25 11:41:37;;;;;;;26.30;17.92;;;;;;;11.57;74.04;101140.56;4986368;28;20034;-92
2022/04/25 11:44:04;;;;;;;27.38;18.45;;;;;;;11.61;72.44;101152.75;4970458;28;20034;-91
2022/04/25 11:46:31;;;;;;;26.30;17.17;;;;;;;11.57;71.43;101148.50;4986263;28;20496;-91
2022/04/25 11:48:56;;;;;;;30.73;18.30;;;;;;;11.49;71.05;101148.78;4981917;28;20180;-89
2022/04/25 11:51:33;;;;;;;26.23;17.35;;;;;;;11.53;71.07;101154.81;4965938;28;20034;-89